sensor_id;sensor_type;location;lat;lon;timestamp;P1;durP1;ratioP1;P2;durP2;ratioP2
8040;SDS011;4063;48.140;10.250;2023-05-01T00:00:58;8.73;;;6.23;;
8040;SDS011;4063;48.140;10.250;2023-05-01T00:03:24;7.33;;;6.53;;
8040;SDS011;4063;48.140;10.250;2023-05-01T00:05:50;7.70;;;6.40;;
8040;SDS011;4063;48.140;10.250;2023-05-01T00:08:17;8.20;;;6.13;;
8040;SDS011;4063;48.140;10.250;2023-05-01T00:10:43;6.53;;;5.87;;
8040;SDS011;4063;48.140;10.250;2023-05-01T00:13:10;6.77;;;6.10;;
8040;SDS011;4063;48.140;10.250;2023-05-01T00:15:39;6.90;;;6.20;;
8040;SDS011;4063;48.140;10.250;2023-05-01T00:18:06;6.60;;;5.90;;
8040;SDS011;4063;48.140;10.250;2023-05-01T00:20:32;7.90;;;5.30;;
8040;SDS011;4063;48.140;10.250;2023-05-01T00:22:58;6.50;;;5.90;;
8040;SDS011;4063;48.140;10.250;2023-05-01T00:25:24;6.63;;;5.80;;
8040;SDS011;4063;48.140;10.250;2023-05-01T00:27:50;7.30;;;5.50;;
8040;SDS011;4063;48.140;10.250;2023-05-01T00:30:15;6.13;;;5.60;;
8040;SDS011;4063;48.140;10.250;2023-05-01T00:32:42;7.50;;;5.43;;
8040;SDS011;4063;48.140;10.250;2023-05-01T00:35:07;6.17;;;5.53;;
8040;SDS011;4063;48.140;10.250;2023-05-01T00:37:33;8.60;;;5.73;;
8040;SDS011;4063;48.140;10.250;2023-05-01T00:40:00;8.70;;;5.93;;
8040;SDS011;4063;48.140;10.250;2023-05-01T00:42:25;6.57;;;5.97;;
8040;SDS011;4063;48.140;10.250;2023-05-01T00:44:51;6.67;;;6.17;;
8040;SDS011;4063;48.140;10.250;2023-05-01T00:47:17;8.27;;;5.67;;
8040;SDS011;4063;48.140;10.250;2023-05-01T00:49:43;6.03;;;5.53;;
8040;SDS011;4063;48.140;10.250;2023-05-01T00:52:10;7.70;;;5.93;;
8040;SDS011;4063;48.140;10.250;2023-05-01T00:54:37;7.90;;;5.93;;
8040;SDS011;4063;48.140;10.250;2023-05-01T00:57:03;6.73;;;5.90;;
8040;SDS011;4063;48.140;10.250;2023-05-01T00:59:32;6.37;;;5.87;;
8040;SDS011;4063;48.140;10.250;2023-05-01T01:01:58;6.30;;;5.70;;
8040;SDS011;4063;48.140;10.250;2023-05-01T01:04:24;6.53;;;5.83;;
8040;SDS011;4063;48.140;10.250;2023-05-01T01:09:36;5.93;;;5.33;;
8040;SDS011;4063;48.140;10.250;2023-05-01T01:14:39;7.07;;;6.03;;
8040;SDS011;4063;48.140;10.250;2023-05-01T01:17:11;6.77;;;5.90;;
8040;SDS011;4063;48.140;10.250;2023-05-01T01:22:14;6.93;;;6.23;;
8040;SDS011;4063;48.140;10.250;2023-05-01T01:35:07;7.60;;;6.20;;
8040;SDS011;4063;48.140;10.250;2023-05-01T01:37:47;6.10;;;5.57;;
8040;SDS011;4063;48.140;10.250;2023-05-01T01:40:18;6.90;;;6.20;;
8040;SDS011;4063;48.140;10.250;2023-05-01T01:43:02;6.70;;;6.10;;
8040;SDS011;4063;48.140;10.250;2023-05-01T01:45:29;6.97;;;6.37;;
8040;SDS011;4063;48.140;10.250;2023-05-01T01:47:57;6.90;;;6.00;;
8040;SDS011;4063;48.140;10.250;2023-05-01T01:50:24;9.50;;;6.73;;
8040;SDS011;4063;48.140;10.250;2023-05-01T01:52:52;6.77;;;6.03;;
8040;SDS011;4063;48.140;10.250;2023-05-01T01:55:20;6.73;;;6.00;;
8040;SDS011;4063;48.140;10.250;2023-05-01T01:57:47;6.30;;;5.70;;
8040;SDS011;4063;48.140;10.250;2023-05-01T02:00:14;6.03;;;5.43;;
8040;SDS011;4063;48.140;10.250;2023-05-01T02:02:40;6.30;;;5.70;;
8040;SDS011;4063;48.140;10.250;2023-05-01T02:05:07;7.90;;;6.53;;
8040;SDS011;4063;48.140;10.250;2023-05-01T02:07:35;6.50;;;5.90;;
8040;SDS011;4063;48.140;10.250;2023-05-01T02:10:03;6.80;;;6.20;;
8040;SDS011;4063;48.140;10.250;2023-05-01T02:12:29;8.63;;;6.40;;
8040;SDS011;4063;48.140;10.250;2023-05-01T02:14:56;7.73;;;6.30;;
8040;SDS011;4063;48.140;10.250;2023-05-01T02:17:23;6.83;;;6.07;;
8040;SDS011;4063;48.140;10.250;2023-05-01T02:19:51;6.83;;;6.23;;
8040;SDS011;4063;48.140;10.250;2023-05-01T02:22:19;6.83;;;6.13;;
8040;SDS011;4063;48.140;10.250;2023-05-01T02:24:46;6.87;;;6.27;;
8040;SDS011;4063;48.140;10.250;2023-05-01T02:27:20;7.00;;;6.07;;
8040;SDS011;4063;48.140;10.250;2023-05-01T02:29:47;6.63;;;6.03;;
8040;SDS011;4063;48.140;10.250;2023-05-01T02:32:13;7.53;;;6.83;;
8040;SDS011;4063;48.140;10.250;2023-05-01T02:34:39;6.83;;;6.17;;
8040;SDS011;4063;48.140;10.250;2023-05-01T02:37:06;7.40;;;6.77;;
8040;SDS011;4063;48.140;10.250;2023-05-01T02:39:35;11.63;;;7.23;;
8040;SDS011;4063;48.140;10.250;2023-05-01T02:42:01;7.33;;;6.73;;
8040;SDS011;4063;48.140;10.250;2023-05-01T02:44:29;7.33;;;6.63;;
8040;SDS011;4063;48.140;10.250;2023-05-01T02:46:57;7.07;;;6.43;;
8040;SDS011;4063;48.140;10.250;2023-05-01T02:49:24;7.13;;;6.43;;
8040;SDS011;4063;48.140;10.250;2023-05-01T02:51:50;11.23;;;6.90;;
8040;SDS011;4063;48.140;10.250;2023-05-01T02:54:16;7.60;;;6.90;;
8040;SDS011;4063;48.140;10.250;2023-05-01T02:56:42;7.40;;;6.70;;
8040;SDS011;4063;48.140;10.250;2023-05-01T02:59:09;8.27;;;7.47;;
8040;SDS011;4063;48.140;10.250;2023-05-01T03:01:35;7.10;;;6.50;;
8040;SDS011;4063;48.140;10.250;2023-05-01T03:04:00;7.33;;;6.50;;
8040;SDS011;4063;48.140;10.250;2023-05-01T03:06:26;6.77;;;6.17;;
8040;SDS011;4063;48.140;10.250;2023-05-01T03:08:53;7.10;;;6.47;;
8040;SDS011;4063;48.140;10.250;2023-05-01T03:11:19;6.80;;;6.10;;
8040;SDS011;4063;48.140;10.250;2023-05-01T03:13:45;6.83;;;6.20;;
8040;SDS011;4063;48.140;10.250;2023-05-01T03:16:11;7.03;;;6.43;;
8040;SDS011;4063;48.140;10.250;2023-05-01T03:18:37;7.23;;;6.43;;
8040;SDS011;4063;48.140;10.250;2023-05-01T03:21:03;7.70;;;6.93;;
8040;SDS011;4063;48.140;10.250;2023-05-01T03:23:29;7.87;;;7.17;;
8040;SDS011;4063;48.140;10.250;2023-05-01T03:25:55;7.20;;;6.50;;
8040;SDS011;4063;48.140;10.250;2023-05-01T03:28:21;7.23;;;6.53;;
8040;SDS011;4063;48.140;10.250;2023-05-01T03:30:49;7.87;;;6.90;;
8040;SDS011;4063;48.140;10.250;2023-05-01T03:33:15;8.90;;;8.00;;
8040;SDS011;4063;48.140;10.250;2023-05-01T03:35:41;8.00;;;7.33;;
8040;SDS011;4063;48.140;10.250;2023-05-01T03:38:07;9.23;;;7.33;;
8040;SDS011;4063;48.140;10.250;2023-05-01T03:40:33;8.80;;;7.90;;
8040;SDS011;4063;48.140;10.250;2023-05-01T03:42:59;9.20;;;8.30;;
8040;SDS011;4063;48.140;10.250;2023-05-01T03:45:25;8.50;;;7.70;;
8040;SDS011;4063;48.140;10.250;2023-05-01T03:47:52;9.23;;;8.43;;
8040;SDS011;4063;48.140;10.250;2023-05-01T03:50:18;10.20;;;9.30;;
8040;SDS011;4063;48.140;10.250;2023-05-01T03:52:44;11.07;;;9.03;;
8040;SDS011;4063;48.140;10.250;2023-05-01T03:55:10;10.40;;;9.40;;
8040;SDS011;4063;48.140;10.250;2023-05-01T03:57:36;10.50;;;9.53;;
8040;SDS011;4063;48.140;10.250;2023-05-01T04:00:02;9.80;;;8.83;;
8040;SDS011;4063;48.140;10.250;2023-05-01T04:02:29;11.03;;;9.60;;
8040;SDS011;4063;48.140;10.250;2023-05-01T04:04:55;10.23;;;9.13;;
8040;SDS011;4063;48.140;10.250;2023-05-01T04:07:22;10.13;;;9.20;;
8040;SDS011;4063;48.140;10.250;2023-05-01T04:09:48;10.10;;;9.20;;
8040;SDS011;4063;48.140;10.250;2023-05-01T04:12:14;10.80;;;9.67;;
8040;SDS011;4063;48.140;10.250;2023-05-01T04:14:40;10.70;;;9.70;;
8040;SDS011;4063;48.140;10.250;2023-05-01T04:17:08;13.73;;;9.57;;
8040;SDS011;4063;48.140;10.250;2023-05-01T04:19:34;12.57;;;11.43;;
8040;SDS011;4063;48.140;10.250;2023-05-01T04:22:00;14.10;;;12.37;;
8040;SDS011;4063;48.140;10.250;2023-05-01T04:24:26;13.03;;;11.43;;
8040;SDS011;4063;48.140;10.250;2023-05-01T04:26:52;14.43;;;11.47;;
8040;SDS011;4063;48.140;10.250;2023-05-01T04:29:18;12.07;;;10.90;;
8040;SDS011;4063;48.140;10.250;2023-05-01T04:31:44;11.97;;;10.77;;
8040;SDS011;4063;48.140;10.250;2023-05-01T04:34:10;12.30;;;10.93;;
8040;SDS011;4063;48.140;10.250;2023-05-01T04:36:36;11.80;;;10.70;;
8040;SDS011;4063;48.140;10.250;2023-05-01T04:39:02;12.50;;;11.30;;
8040;SDS011;4063;48.140;10.250;2023-05-01T04:41:28;11.73;;;10.53;;
8040;SDS011;4063;48.140;10.250;2023-05-01T04:43:54;13.33;;;12.03;;
8040;SDS011;4063;48.140;10.250;2023-05-01T04:46:20;12.67;;;11.57;;
8040;SDS011;4063;48.140;10.250;2023-05-01T04:48:46;13.53;;;12.13;;
8040;SDS011;4063;48.140;10.250;2023-05-01T04:51:12;13.17;;;11.83;;
8040;SDS011;4063;48.140;10.250;2023-05-01T04:53:38;12.13;;;10.87;;
8040;SDS011;4063;48.140;10.250;2023-05-01T04:56:04;12.87;;;11.50;;
8040;SDS011;4063;48.140;10.250;2023-05-01T04:58:30;11.63;;;10.40;;
8040;SDS011;4063;48.140;10.250;2023-05-01T05:00:56;11.03;;;10.00;;
8040;SDS011;4063;48.140;10.250;2023-05-01T05:03:22;15.93;;;14.43;;
8040;SDS011;4063;48.140;10.250;2023-05-01T05:05:48;15.33;;;13.73;;
8040;SDS011;4063;48.140;10.250;2023-05-01T05:08:14;12.37;;;11.27;;
8040;SDS011;4063;48.140;10.250;2023-05-01T05:10:40;11.80;;;10.67;;
8040;SDS011;4063;48.140;10.250;2023-05-01T05:13:06;11.63;;;10.47;;
8040;SDS011;4063;48.140;10.250;2023-05-01T05:15:33;11.27;;;10.37;;
8040;SDS011;4063;48.140;10.250;2023-05-01T05:17:59;11.53;;;10.43;;
8040;SDS011;4063;48.140;10.250;2023-05-01T05:20:25;11.13;;;10.13;;
8040;SDS011;4063;48.140;10.250;2023-05-01T05:22:52;12.80;;;11.50;;
8040;SDS011;4063;48.140;10.250;2023-05-01T05:25:18;13.03;;;11.53;;
8040;SDS011;4063;48.140;10.250;2023-05-01T05:27:44;11.33;;;10.33;;
8040;SDS011;4063;48.140;10.250;2023-05-01T05:30:10;10.43;;;9.53;;
8040;SDS011;4063;48.140;10.250;2023-05-01T05:32:36;10.87;;;9.83;;
8040;SDS011;4063;48.140;10.250;2023-05-01T05:35:02;10.20;;;9.30;;
8040;SDS011;4063;48.140;10.250;2023-05-01T05:37:28;10.50;;;9.50;;
8040;SDS011;4063;48.140;10.250;2023-05-01T05:39:54;10.67;;;9.57;;
8040;SDS011;4063;48.140;10.250;2023-05-01T05:42:20;9.33;;;8.47;;
8040;SDS011;4063;48.140;10.250;2023-05-01T05:44:46;9.83;;;8.87;;
8040;SDS011;4063;48.140;10.250;2023-05-01T05:47:12;9.57;;;8.57;;
8040;SDS011;4063;48.140;10.250;2023-05-01T05:49:38;8.97;;;8.07;;
8040;SDS011;4063;48.140;10.250;2023-05-01T05:52:04;9.33;;;8.40;;
8040;SDS011;4063;48.140;10.250;2023-05-01T05:54:30;11.10;;;9.67;;
8040;SDS011;4063;48.140;10.250;2023-05-01T05:56:56;9.17;;;8.27;;
8040;SDS011;4063;48.140;10.250;2023-05-01T05:59:22;9.47;;;8.47;;
8040;SDS011;4063;48.140;10.250;2023-05-01T06:01:48;11.47;;;8.73;;
8040;SDS011;4063;48.140;10.250;2023-05-01T06:04:14;9.07;;;8.23;;
8040;SDS011;4063;48.140;10.250;2023-05-01T06:06:40;9.90;;;8.87;;
8040;SDS011;4063;48.140;10.250;2023-05-01T06:09:06;9.27;;;8.33;;
8040;SDS011;4063;48.140;10.250;2023-05-01T06:11:32;10.47;;;8.20;;
8040;SDS011;4063;48.140;10.250;2023-05-01T06:13:58;11.00;;;9.90;;
8040;SDS011;4063;48.140;10.250;2023-05-01T06:16:26;10.67;;;9.60;;
8040;SDS011;4063;48.140;10.250;2023-05-01T06:18:53;10.80;;;9.50;;
8040;SDS011;4063;48.140;10.250;2023-05-01T06:21:19;11.37;;;10.27;;
8040;SDS011;4063;48.140;10.250;2023-05-01T06:23:45;11.23;;;10.13;;
8040;SDS011;4063;48.140;10.250;2023-05-01T06:26:11;10.63;;;9.63;;
8040;SDS011;4063;48.140;10.250;2023-05-01T06:28:37;9.63;;;8.70;;
8040;SDS011;4063;48.140;10.250;2023-05-01T06:31:03;11.33;;;9.00;;
8040;SDS011;4063;48.140;10.250;2023-05-01T06:33:29;8.80;;;7.97;;
8040;SDS011;4063;48.140;10.250;2023-05-01T06:35:55;9.80;;;8.90;;
8040;SDS011;4063;48.140;10.250;2023-05-01T06:38:27;9.17;;;8.27;;
8040;SDS011;4063;48.140;10.250;2023-05-01T06:40:53;11.43;;;8.90;;
8040;SDS011;4063;48.140;10.250;2023-05-01T06:43:19;8.67;;;7.87;;
8040;SDS011;4063;48.140;10.250;2023-05-01T06:45:45;9.53;;;8.53;;
8040;SDS011;4063;48.140;10.250;2023-05-01T06:48:11;8.83;;;8.10;;
8040;SDS011;4063;48.140;10.250;2023-05-01T06:50:37;10.03;;;7.90;;
8040;SDS011;4063;48.140;10.250;2023-05-01T06:53:03;8.13;;;7.37;;
8040;SDS011;4063;48.140;10.250;2023-05-01T06:55:29;7.53;;;6.93;;
8040;SDS011;4063;48.140;10.250;2023-05-01T06:57:57;8.17;;;7.23;;
8040;SDS011;4063;48.140;10.250;2023-05-01T07:00:23;8.57;;;7.70;;
8040;SDS011;4063;48.140;10.250;2023-05-01T07:02:49;8.13;;;7.33;;
8040;SDS011;4063;48.140;10.250;2023-05-01T07:05:15;7.43;;;6.67;;
8040;SDS011;4063;48.140;10.250;2023-05-01T07:07:41;8.40;;;7.13;;
8040;SDS011;4063;48.140;10.250;2023-05-01T07:10:07;7.93;;;7.20;;
8040;SDS011;4063;48.140;10.250;2023-05-01T07:12:33;7.73;;;7.00;;
8040;SDS011;4063;48.140;10.250;2023-05-01T07:14:59;7.80;;;7.10;;
8040;SDS011;4063;48.140;10.250;2023-05-01T07:17:25;7.90;;;7.20;;
8040;SDS011;4063;48.140;10.250;2023-05-01T07:19:51;8.27;;;7.40;;
8040;SDS011;4063;48.140;10.250;2023-05-01T07:22:18;7.03;;;6.43;;
8040;SDS011;4063;48.140;10.250;2023-05-01T07:24:44;7.37;;;6.77;;
8040;SDS011;4063;48.140;10.250;2023-05-01T07:27:10;7.33;;;6.60;;
8040;SDS011;4063;48.140;10.250;2023-05-01T07:29:37;7.67;;;7.00;;
8040;SDS011;4063;48.140;10.250;2023-05-01T07:32:04;7.10;;;6.40;;
8040;SDS011;4063;48.140;10.250;2023-05-01T07:34:30;8.30;;;7.50;;
8040;SDS011;4063;48.140;10.250;2023-05-01T07:36:57;8.37;;;7.57;;
8040;SDS011;4063;48.140;10.250;2023-05-01T07:39:24;8.83;;;8.03;;
8040;SDS011;4063;48.140;10.250;2023-05-01T07:41:50;9.00;;;8.23;;
8040;SDS011;4063;48.140;10.250;2023-05-01T07:44:16;11.00;;;8.30;;
8040;SDS011;4063;48.140;10.250;2023-05-01T07:46:42;8.37;;;7.67;;
8040;SDS011;4063;48.140;10.250;2023-05-01T07:49:08;8.27;;;7.60;;
8040;SDS011;4063;48.140;10.250;2023-05-01T07:51:34;8.67;;;7.50;;
8040;SDS011;4063;48.140;10.250;2023-05-01T07:54:00;7.37;;;6.67;;
8040;SDS011;4063;48.140;10.250;2023-05-01T07:56:28;8.67;;;7.93;;
8040;SDS011;4063;48.140;10.250;2023-05-01T07:58:56;8.57;;;7.77;;
8040;SDS011;4063;48.140;10.250;2023-05-01T08:01:22;8.37;;;7.47;;
8040;SDS011;4063;48.140;10.250;2023-05-01T08:03:48;9.13;;;7.90;;
8040;SDS011;4063;48.140;10.250;2023-05-01T08:06:14;8.40;;;7.57;;
8040;SDS011;4063;48.140;10.250;2023-05-01T08:08:40;9.70;;;7.83;;
8040;SDS011;4063;48.140;10.250;2023-05-01T08:11:07;8.70;;;7.95;;
8040;SDS011;4063;48.140;10.250;2023-05-01T08:13:33;7.85;;;7.15;;
8040;SDS011;4063;48.140;10.250;2023-05-01T08:15:59;8.10;;;7.38;;
8040;SDS011;4063;48.140;10.250;2023-05-01T08:18:26;9.48;;;8.55;;
8040;SDS011;4063;48.140;10.250;2023-05-01T08:20:52;8.88;;;8.07;;
8040;SDS011;4063;48.140;10.250;2023-05-01T08:23:18;8.93;;;8.05;;
8040;SDS011;4063;48.140;10.250;2023-05-01T08:25:44;10.25;;;9.20;;
8040;SDS011;4063;48.140;10.250;2023-05-01T08:28:16;9.63;;;8.70;;
8040;SDS011;4063;48.140;10.250;2023-05-01T08:30:42;10.05;;;8.52;;
8040;SDS011;4063;48.140;10.250;2023-05-01T08:33:08;9.67;;;8.63;;
8040;SDS011;4063;48.140;10.250;2023-05-01T08:35:34;9.10;;;8.25;;
8040;SDS011;4063;48.140;10.250;2023-05-01T08:38:00;8.88;;;8.13;;
8040;SDS011;4063;48.140;10.250;2023-05-01T08:40:27;9.95;;;8.48;;
8040;SDS011;4063;48.140;10.250;2023-05-01T08:42:56;10.57;;;8.47;;
8040;SDS011;4063;48.140;10.250;2023-05-01T08:45:22;8.98;;;8.10;;
8040;SDS011;4063;48.140;10.250;2023-05-01T08:47:49;9.32;;;8.27;;
8040;SDS011;4063;48.140;10.250;2023-05-01T08:50:17;8.57;;;7.88;;
8040;SDS011;4063;48.140;10.250;2023-05-01T08:52:43;9.05;;;8.15;;
8040;SDS011;4063;48.140;10.250;2023-05-01T08:55:11;9.25;;;8.35;;
8040;SDS011;4063;48.140;10.250;2023-05-01T08:57:37;9.77;;;8.18;;
8040;SDS011;4063;48.140;10.250;2023-05-01T09:00:04;9.80;;;8.73;;
8040;SDS011;4063;48.140;10.250;2023-05-01T09:02:31;8.88;;;7.90;;
8040;SDS011;4063;48.140;10.250;2023-05-01T09:04:59;8.57;;;7.88;;
8040;SDS011;4063;48.140;10.250;2023-05-01T09:07:28;8.50;;;7.72;;
8040;SDS011;4063;48.140;10.250;2023-05-01T09:09:54;8.95;;;8.10;;
8040;SDS011;4063;48.140;10.250;2023-05-01T09:12:24;11.10;;;8.23;;
8040;SDS011;4063;48.140;10.250;2023-05-01T09:14:51;8.82;;;8.00;;
8040;SDS011;4063;48.140;10.250;2023-05-01T09:17:17;8.60;;;7.70;;
8040;SDS011;4063;48.140;10.250;2023-05-01T09:19:44;8.55;;;7.85;;
8040;SDS011;4063;48.140;10.250;2023-05-01T09:22:11;7.80;;;7.10;;
8040;SDS011;4063;48.140;10.250;2023-05-01T09:24:37;8.65;;;7.65;;
8040;SDS011;4063;48.140;10.250;2023-05-01T09:27:04;8.13;;;7.40;;
8040;SDS011;4063;48.140;10.250;2023-05-01T09:29:37;8.93;;;7.95;;
8040;SDS011;4063;48.140;10.250;2023-05-01T09:34:41;8.07;;;7.28;;
8040;SDS011;4063;48.140;10.250;2023-05-01T09:37:09;11.30;;;7.47;;
8040;SDS011;4063;48.140;10.250;2023-05-01T09:39:35;9.73;;;7.57;;
8040;SDS011;4063;48.140;10.250;2023-05-01T09:42:01;7.53;;;6.82;;
8040;SDS011;4063;48.140;10.250;2023-05-01T09:44:27;8.35;;;7.50;;
8040;SDS011;4063;48.140;10.250;2023-05-01T09:46:53;8.13;;;7.32;;
8040;SDS011;4063;48.140;10.250;2023-05-01T09:49:19;8.05;;;7.28;;
8040;SDS011;4063;48.140;10.250;2023-05-01T09:51:45;7.65;;;7.03;;
8040;SDS011;4063;48.140;10.250;2023-05-01T09:54:18;7.15;;;6.47;;
8040;SDS011;4063;48.140;10.250;2023-05-01T09:56:45;7.85;;;6.97;;
8040;SDS011;4063;48.140;10.250;2023-05-01T09:59:15;7.30;;;6.70;;
8040;SDS011;4063;48.140;10.250;2023-05-01T10:01:42;8.73;;;6.72;;
8040;SDS011;4063;48.140;10.250;2023-05-01T10:04:09;7.47;;;6.68;;
8040;SDS011;4063;48.140;10.250;2023-05-01T10:06:35;7.75;;;6.93;;
8040;SDS011;4063;48.140;10.250;2023-05-01T10:09:02;8.07;;;7.38;;
8040;SDS011;4063;48.140;10.250;2023-05-01T10:11:28;8.23;;;7.18;;
8040;SDS011;4063;48.140;10.250;2023-05-01T10:14:04;7.85;;;7.15;;
8040;SDS011;4063;48.140;10.250;2023-05-01T10:16:32;7.97;;;7.28;;
8040;SDS011;4063;48.140;10.250;2023-05-01T10:18:58;7.75;;;6.95;;
8040;SDS011;4063;48.140;10.250;2023-05-01T10:21:25;8.57;;;7.65;;
8040;SDS011;4063;48.140;10.250;2023-05-01T10:23:52;8.05;;;7.07;;
8040;SDS011;4063;48.140;10.250;2023-05-01T10:26:18;7.78;;;7.07;;
8040;SDS011;4063;48.140;10.250;2023-05-01T10:28:45;8.35;;;7.55;;
8040;SDS011;4063;48.140;10.250;2023-05-01T10:31:11;8.65;;;7.45;;
8040;SDS011;4063;48.140;10.250;2023-05-01T10:33:38;7.60;;;7.00;;
8040;SDS011;4063;48.140;10.250;2023-05-01T10:36:04;9.18;;;7.55;;
8040;SDS011;4063;48.140;10.250;2023-05-01T10:38:32;7.70;;;6.93;;
8040;SDS011;4063;48.140;10.250;2023-05-01T10:41:02;7.70;;;6.90;;
8040;SDS011;4063;48.140;10.250;2023-05-01T10:43:30;7.75;;;7.05;;
8040;SDS011;4063;48.140;10.250;2023-05-01T10:51:08;7.88;;;7.18;;
8040;SDS011;4063;48.140;10.250;2023-05-01T10:53:35;7.72;;;6.80;;
8040;SDS011;4063;48.140;10.250;2023-05-01T10:56:02;7.20;;;6.57;;
8040;SDS011;4063;48.140;10.250;2023-05-01T11:03:50;7.03;;;6.43;;
8040;SDS011;4063;48.140;10.250;2023-05-01T11:06:16;7.05;;;6.45;;
8040;SDS011;4063;48.140;10.250;2023-05-01T11:08:42;6.95;;;6.25;;
8040;SDS011;4063;48.140;10.250;2023-05-01T11:13:57;7.05;;;6.45;;
8040;SDS011;4063;48.140;10.250;2023-05-01T11:19:02;7.55;;;6.82;;
8040;SDS011;4063;48.140;10.250;2023-05-01T11:21:29;8.45;;;6.68;;
8040;SDS011;4063;48.140;10.250;2023-05-01T11:23:58;7.65;;;6.82;;
8040;SDS011;4063;48.140;10.250;2023-05-01T11:26:24;7.18;;;6.47;;
8040;SDS011;4063;48.140;10.250;2023-05-01T11:28:50;7.28;;;6.57;;
8040;SDS011;4063;48.140;10.250;2023-05-01T11:31:18;8.02;;;7.18;;
8040;SDS011;4063;48.140;10.250;2023-05-01T11:33:45;7.53;;;6.82;;
8040;SDS011;4063;48.140;10.250;2023-05-01T11:36:11;6.47;;;5.88;;
8040;SDS011;4063;48.140;10.250;2023-05-01T11:38:38;6.68;;;6.10;;
8040;SDS011;4063;48.140;10.250;2023-05-01T11:41:13;6.60;;;6.05;;
8040;SDS011;4063;48.140;10.250;2023-05-01T11:43:52;6.32;;;5.82;;
8040;SDS011;4063;48.140;10.250;2023-05-01T11:46:29;6.50;;;5.95;;
8040;SDS011;4063;48.140;10.250;2023-05-01T11:48:58;6.13;;;5.63;;
8040;SDS011;4063;48.140;10.250;2023-05-01T11:51:25;6.55;;;5.95;;
8040;SDS011;4063;48.140;10.250;2023-05-01T11:56:27;6.53;;;5.93;;
8040;SDS011;4063;48.140;10.250;2023-05-01T11:58:54;6.18;;;5.55;;
8040;SDS011;4063;48.140;10.250;2023-05-01T12:01:31;6.20;;;5.70;;
8040;SDS011;4063;48.140;10.250;2023-05-01T12:03:57;5.88;;;5.43;;
8040;SDS011;4063;48.140;10.250;2023-05-01T12:06:28;6.10;;;5.60;;
8040;SDS011;4063;48.140;10.250;2023-05-01T12:09:00;6.57;;;5.97;;
8040;SDS011;4063;48.140;10.250;2023-05-01T12:11:26;6.28;;;5.78;;
8040;SDS011;4063;48.140;10.250;2023-05-01T12:13:52;9.00;;;5.75;;
8040;SDS011;4063;48.140;10.250;2023-05-01T12:16:19;6.60;;;6.00;;
8040;SDS011;4063;48.140;10.250;2023-05-01T12:18:45;6.97;;;6.20;;
8040;SDS011;4063;48.140;10.250;2023-05-01T12:21:15;6.47;;;5.88;;
8040;SDS011;4063;48.140;10.250;2023-05-01T12:23:44;6.13;;;5.63;;
8040;SDS011;4063;48.140;10.250;2023-05-01T12:26:20;5.43;;;4.95;;
8040;SDS011;4063;48.140;10.250;2023-05-01T12:28:56;5.78;;;5.22;;
8040;SDS011;4063;48.140;10.250;2023-05-01T12:31:23;6.40;;;5.90;;
8040;SDS011;4063;48.140;10.250;2023-05-01T12:33:53;5.85;;;5.35;;
8040;SDS011;4063;48.140;10.250;2023-05-01T12:36:20;6.80;;;6.10;;
8040;SDS011;4063;48.140;10.250;2023-05-01T12:39:07;6.50;;;5.90;;
8040;SDS011;4063;48.140;10.250;2023-05-01T12:41:35;6.00;;;5.35;;
8040;SDS011;4063;48.140;10.250;2023-05-01T12:44:01;7.32;;;6.07;;
8040;SDS011;4063;48.140;10.250;2023-05-01T12:46:27;5.80;;;5.30;;
8040;SDS011;4063;48.140;10.250;2023-05-01T12:48:53;5.25;;;4.85;;
8040;SDS011;4063;48.140;10.250;2023-05-01T12:51:20;5.40;;;4.97;;
8040;SDS011;4063;48.140;10.250;2023-05-01T12:53:46;5.82;;;4.82;;
8040;SDS011;4063;48.140;10.250;2023-05-01T12:56:22;5.50;;;5.00;;
8040;SDS011;4063;48.140;10.250;2023-05-01T12:58:49;5.25;;;4.75;;
8040;SDS011;4063;48.140;10.250;2023-05-01T13:01:26;5.60;;;5.10;;
8040;SDS011;4063;48.140;10.250;2023-05-01T13:03:53;6.05;;;5.55;;
8040;SDS011;4063;48.140;10.250;2023-05-01T13:06:21;7.93;;;5.53;;
8040;SDS011;4063;48.140;10.250;2023-05-01T13:08:47;5.93;;;5.43;;
8040;SDS011;4063;48.140;10.250;2023-05-01T13:11:15;6.15;;;5.65;;
8040;SDS011;4063;48.140;10.250;2023-05-01T13:13:43;6.47;;;5.90;;
8040;SDS011;4063;48.140;10.250;2023-05-01T13:16:13;6.40;;;5.85;;
8040;SDS011;4063;48.140;10.250;2023-05-01T13:18:43;10.02;;;6.97;;
8040;SDS011;4063;48.140;10.250;2023-05-01T13:21:10;7.68;;;6.95;;
8040;SDS011;4063;48.140;10.250;2023-05-01T13:23:38;7.60;;;6.72;;
8040;SDS011;4063;48.140;10.250;2023-05-01T13:26:05;8.75;;;7.07;;
8040;SDS011;4063;48.140;10.250;2023-05-01T13:28:35;7.78;;;6.20;;
8040;SDS011;4063;48.140;10.250;2023-05-01T13:31:09;6.25;;;5.75;;
8040;SDS011;4063;48.140;10.250;2023-05-01T13:33:37;5.05;;;4.60;;
8040;SDS011;4063;48.140;10.250;2023-05-01T13:36:04;4.43;;;3.97;;
8040;SDS011;4063;48.140;10.250;2023-05-01T13:38:31;4.45;;;4.10;;
8040;SDS011;4063;48.140;10.250;2023-05-01T13:40:59;5.22;;;4.40;;
8040;SDS011;4063;48.140;10.250;2023-05-01T13:43:25;4.30;;;4.00;;
8040;SDS011;4063;48.140;10.250;2023-05-01T13:45:55;4.13;;;3.83;;
8040;SDS011;4063;48.140;10.250;2023-05-01T13:48:22;4.30;;;4.00;;
8040;SDS011;4063;48.140;10.250;2023-05-01T13:50:48;5.85;;;4.70;;
8040;SDS011;4063;48.140;10.250;2023-05-01T13:53:14;4.70;;;4.30;;
8040;SDS011;4063;48.140;10.250;2023-05-01T13:55:40;6.25;;;4.85;;
8040;SDS011;4063;48.140;10.250;2023-05-01T13:58:06;4.88;;;4.47;;
8040;SDS011;4063;48.140;10.250;2023-05-01T14:00:32;5.25;;;4.75;;
8040;SDS011;4063;48.140;10.250;2023-05-01T14:02:59;6.32;;;5.10;;
8040;SDS011;4063;48.140;10.250;2023-05-01T14:05:25;5.88;;;5.38;;
8040;SDS011;4063;48.140;10.250;2023-05-01T14:07:53;6.03;;;5.43;;
8040;SDS011;4063;48.140;10.250;2023-05-01T14:10:19;5.35;;;4.78;;
8040;SDS011;4063;48.140;10.250;2023-05-01T14:12:46;4.82;;;4.35;;
8040;SDS011;4063;48.140;10.250;2023-05-01T14:15:12;4.10;;;3.80;;
8040;SDS011;4063;48.140;10.250;2023-05-01T14:17:38;4.35;;;3.58;;
8040;SDS011;4063;48.140;10.250;2023-05-01T14:20:04;5.50;;;3.92;;
8040;SDS011;4063;48.140;10.250;2023-05-01T14:22:41;3.55;;;3.25;;
8040;SDS011;4063;48.140;10.250;2023-05-01T14:25:07;4.40;;;2.60;;
8040;SDS011;4063;48.140;10.250;2023-05-01T14:27:41;2.85;;;2.65;;
8040;SDS011;4063;48.140;10.250;2023-05-01T14:30:07;2.80;;;2.60;;
8040;SDS011;4063;48.140;10.250;2023-05-01T14:32:39;2.40;;;2.20;;
8040;SDS011;4063;48.140;10.250;2023-05-01T14:35:07;2.58;;;2.38;;
8040;SDS011;4063;48.140;10.250;2023-05-01T14:37:33;2.25;;;2.05;;
8040;SDS011;4063;48.140;10.250;2023-05-01T14:39:59;2.00;;;1.80;;
8040;SDS011;4063;48.140;10.250;2023-05-01T14:42:26;2.17;;;1.98;;
8040;SDS011;4063;48.140;10.250;2023-05-01T14:44:52;1.83;;;1.73;;
8040;SDS011;4063;48.140;10.250;2023-05-01T14:47:18;2.13;;;2.00;;
8040;SDS011;4063;48.140;10.250;2023-05-01T14:49:48;2.13;;;2.03;;
8040;SDS011;4063;48.140;10.250;2023-05-01T14:52:18;2.03;;;1.92;;
8040;SDS011;4063;48.140;10.250;2023-05-01T14:54:45;2.42;;;2.17;;
8040;SDS011;4063;48.140;10.250;2023-05-01T14:57:12;2.83;;;1.90;;
8040;SDS011;4063;48.140;10.250;2023-05-01T14:59:38;2.22;;;2.05;;
8040;SDS011;4063;48.140;10.250;2023-05-01T15:02:04;1.92;;;1.83;;
8040;SDS011;4063;48.140;10.250;2023-05-01T15:04:30;1.77;;;1.67;;
8040;SDS011;4063;48.140;10.250;2023-05-01T15:06:56;1.90;;;1.80;;
8040;SDS011;4063;48.140;10.250;2023-05-01T15:09:22;2.03;;;1.85;;
8040;SDS011;4063;48.140;10.250;2023-05-01T15:11:48;1.70;;;1.60;;
8040;SDS011;4063;48.140;10.250;2023-05-01T15:14:14;1.88;;;1.77;;
8040;SDS011;4063;48.140;10.250;2023-05-01T15:16:40;1.80;;;1.70;;
8040;SDS011;4063;48.140;10.250;2023-05-01T15:19:06;2.88;;;2.00;;
8040;SDS011;4063;48.140;10.250;2023-05-01T15:21:32;1.77;;;1.67;;
8040;SDS011;4063;48.140;10.250;2023-05-01T15:23:58;2.08;;;1.90;;
8040;SDS011;4063;48.140;10.250;2023-05-01T15:26:24;2.22;;;1.90;;
8040;SDS011;4063;48.140;10.250;2023-05-01T15:28:50;2.08;;;1.92;;
8040;SDS011;4063;48.140;10.250;2023-05-01T15:31:16;2.15;;;2.00;;
8040;SDS011;4063;48.140;10.250;2023-05-01T15:33:43;2.17;;;1.85;;
8040;SDS011;4063;48.140;10.250;2023-05-01T15:36:10;2.20;;;2.00;;